Time;durP1;ratioP1;P1;durP2;ratioP2;P2;SDS_P1;SDS_P2;PMS_P1;PMS_P2;Temp;Humidity;BMP_temperature;BMP_pressure;BME280_temperature;BME280_humidity;BME280_pressure;Samples;Min_cycle;Max_cycle;Signal;HPM_P1;HPM_P2
2022/08/06 00:01:47;;;;;;;4.85;3.78;;;22.00;93.30;;;;;;4983507;28;20034;-55
2022/08/06 00:04:12;;;;;;;5.40;4.85;;;22.00;93.30;;;;;;4983939;28;20102;-55
2022/08/06 00:06:38;;;;;;;4.63;4.18;;;22.00;93.20;;;;;;4981272;28;20500;-54
2022/08/06 00:09:04;;;;;;;4.30;3.60;;;22.00;93.20;;;;;;4988178;28;20031;-54
2022/08/06 00:11:29;;;;;;;4.32;3.72;;;22.00;93.30;;;;;;4985712;28;20052;-54
2022/08/06 00:13:55;;;;;;;4.15;3.75;;;22.00;93.30;;;;;;4986019;28;20061;-54
2022/08/06 00:16:20;;;;;;;5.30;4.57;;;21.90;93.40;;;;;;4985850;28;20046;-55
2022/08/06 00:18:46;;;;;;;4.28;3.80;;;21.90;93.40;;;;;;4984703;28;20028;-55
2022/08/06 00:21:12;;;;;;;4.50;4.05;;;21.90;93.40;;;;;;4987746;28;20058;-55
2022/08/06 00:23:37;;;;;;;4.75;3.83;;;21.90;93.80;;;;;;4986334;28;20033;-55
2022/08/06 00:26:03;;;;;;;5.25;4.32;;;21.90;93.50;;;;;;4985119;28;20026;-55
2022/08/06 00:28:29;;;;;;;4.13;3.63;;;21.90;93.50;;;;;;4981196;28;20037;-53
2022/08/06 00:30:54;;;;;;;5.10;4.00;;;21.90;93.50;;;;;;4996583;28;20080;-54
2022/08/06 00:33:20;;;;;;;4.57;4.18;;;21.90;93.50;;;;;;4989582;28;20500;-55
2022/08/06 00:35:46;;;;;;;4.72;4.20;;;21.90;93.60;;;;;;4984262;28;20445;-54
2022/08/06 00:38:12;;;;;;;5.32;4.47;;;21.90;93.60;;;;;;4992076;28;20065;-54
2022/08/06 00:40:38;;;;;;;4.97;4.13;;;21.90;93.60;;;;;;5000426;28;20435;-55
2022/08/06 00:43:04;;;;;;;4.40;4.00;;;21.90;93.50;;;;;;4994027;28;20098;-55
2022/08/06 00:45:31;;;;;;;4.13;3.72;;;21.90;93.60;;;;;;4990616;28;20381;-54
2022/08/06 00:47:58;;;;;;;4.45;3.95;;;21.90;93.60;;;;;;4991092;28;20038;-55
2022/08/06 00:50:24;;;;;;;5.75;4.63;;;21.90;93.70;;;;;;4993709;28;20026;-54
2022/08/06 00:52:49;;;;;;;4.45;4.05;;;22.00;93.80;;;;;;4995898;28;20026;-55
2022/08/06 00:55:15;;;;;;;4.43;3.97;;;22.00;93.80;;;;;;4992514;28;20034;-54
2022/08/06 00:57:41;;;;;;;5.55;4.35;;;22.00;93.70;;;;;;4991661;28;20022;-54
2022/08/06 01:00:07;;;;;;;5.28;4.43;;;22.00;93.40;;;;;;4994743;28;20027;-55
2022/08/06 01:02:34;;;;;;;4.22;3.83;;;22.00;93.30;;;;;;4995715;28;20034;-55
2022/08/06 01:04:59;;;;;;;5.97;4.72;;;21.90;93.30;;;;;;4993809;28;20097;-55
2022/08/06 01:07:25;;;;;;;5.28;4.78;;;21.90;93.30;;;;;;5000735;28;20065;-55
2022/08/06 01:09:51;;;;;;;4.20;3.80;;;21.90;93.30;;;;;;4992394;28;20056;-54
2022/08/06 01:12:17;;;;;;;4.38;3.83;;;21.90;93.30;;;;;;4993938;28;20037;-54
2022/08/06 01:14:43;;;;;;;4.65;4.00;;;21.90;93.40;;;;;;4994320;28;20084;-54
2022/08/06 01:17:23;;;;;;;5.13;4.40;;;21.90;93.30;;;;;;4990397;28;20026;-55
2022/08/06 01:20:34;;;;;;;4.13;3.70;;;21.90;93.40;;;;;;4993094;28;20482;-54
2022/08/06 01:23:27;;;;;;;5.25;4.13;;;21.90;93.40;;;;;;4989125;28;20026;-54
2022/08/06 01:26:40;;;;;;;4.40;4.00;;;21.80;93.50;;;;;;4990188;28;20521;-56
2022/08/06 01:29:20;;;;;;;5.03;4.10;;;21.80;93.70;;;;;;4964551;28;20410;-54
2022/08/06 01:31:55;;;;;;;4.65;4.15;;;21.80;93.70;;;;;;4985216;28;20061;-54
2022/08/06 01:34:31;;;;;;;4.10;3.60;;;21.80;93.90;;;;;;4989229;28;20037;-55
2022/08/06 01:37:29;;;;;;;4.20;3.80;;;21.90;94.00;;;;;;4981594;28;20631;-55
2022/08/06 01:40:00;;;;;;;4.20;3.70;;;21.90;94.20;;;;;;4982591;28;20026;-54
2022/08/06 01:42:27;;;;;;;;;;;21.90;94.50;;;;;;4999228;28;20026;-55
2022/08/06 01:44:56;;;;;;;4.20;3.80;;;21.90;94.40;;;;;;4992085;28;19938;-54
2022/08/06 01:47:25;;;;;;;4.53;3.67;;;21.90;94.10;;;;;;5001275;28;20030;-56
2022/08/06 01:49:55;;;;;;;4.68;4.00;;;21.90;94.00;;;;;;4994246;28;20036;-55
2022/08/06 01:52:23;;;;;;;4.20;3.80;;;21.90;93.90;;;;;;5002032;28;20037;-55
2022/08/06 01:54:50;;;;;;;4.72;4.05;;;21.90;93.90;;;;;;4992269;28;20463;-56
2022/08/06 01:57:19;;;;;;;5.43;4.30;;;21.90;93.90;;;;;;4988189;28;20031;-55
2022/08/06 01:59:48;;;;;;;4.55;4.07;;;21.90;93.80;;;;;;5000546;28;20009;-54
2022/08/06 02:02:20;;;;;;;4.57;4.03;;;21.90;93.60;;;;;;4981083;28;20383;-55
2022/08/06 02:04:49;;;;;;;4.32;3.92;;;21.90;93.60;;;;;;5002543;28;20539;-54
2022/08/06 02:07:19;;;;;;;4.30;3.58;;;21.90;93.60;;;;;;4998044;28;20053;-55
2022/08/06 02:09:47;;;;;;;4.28;3.67;;;21.90;93.70;;;;;;4999196;28;20026;-54
2022/08/06 02:12:19;;;;;;;4.72;3.63;;;21.90;93.80;;;;;;5002987;28;20025;-55
2022/08/06 02:14:52;;;;;;;4.07;3.65;;;21.90;93.70;;;;;;4993189;28;20559;-54
2022/08/06 02:17:20;;;;;;;4.03;3.63;;;21.90;93.60;;;;;;4997876;28;20490;-54
2022/08/06 02:19:49;;;;;;;4.45;3.65;;;21.90;93.60;;;;;;5008548;28;20037;-55
2022/08/06 02:22:16;;;;;;;4.70;4.20;;;21.90;93.50;;;;;;5004607;28;20100;-55
2022/08/06 02:24:43;;;;;;;5.07;4.50;;;21.90;93.60;;;;;;4990774;28;20036;-55
2022/08/06 02:27:10;;;;;;;4.18;3.78;;;21.90;93.60;;;;;;4990948;28;20042;-55
2022/08/06 02:29:38;;;;;;;4.70;4.10;;;21.90;93.80;;;;;;4993725;28;20045;-55
2022/08/06 02:32:04;;;;;;;4.18;3.72;;;21.90;93.80;;;;;;4988925;28;20362;-55
2022/08/06 02:34:29;;;;;;;4.10;3.70;;;21.90;93.80;;;;;;4986044;28;20031;-55
2022/08/06 02:37:20;;;;;;;4.20;3.67;;;21.90;93.80;;;;;;4987965;28;20548;-55
2022/08/06 02:39:57;;;;;;;4.78;4.28;;;21.90;93.70;;;;;;4988315;28;20074;-54
2022/08/06 02:42:30;;;;;;;4.50;4.00;;;21.90;93.80;;;;;;4989101;28;20022;-55
2022/08/06 02:45:12;;;;;;;4.72;3.97;;;21.90;93.80;;;;;;4996532;28;20022;-55
2022/08/06 02:47:46;;;;;;;4.68;4.15;;;21.90;93.60;;;;;;5002308;28;20025;-55
2022/08/06 02:50:16;;;;;;;4.78;4.18;;;21.90;93.70;;;;;;4988908;28;20482;-54
2022/08/06 02:52:55;;;;;;;4.63;4.10;;;22.00;93.60;;;;;;4988552;28;20034;-55
2022/08/06 02:55:25;;;;;;;4.35;3.47;;;21.90;93.50;;;;;;4989117;28;20046;-55
2022/08/06 02:58:11;;;;;;;4.90;4.07;;;22.00;93.70;;;;;;4989579;28;20022;-55
2022/08/06 03:00:40;;;;;;;4.93;4.10;;;22.00;93.70;;;;;;4993790;28;20027;-54
2022/08/06 03:03:07;;;;;;;4.53;3.83;;;22.00;93.60;;;;;;4993727;28;20105;-55
2022/08/06 03:05:35;;;;;;;5.95;4.38;;;22.00;93.70;;;;;;4994049;28;20158;-53
2022/08/06 03:08:02;;;;;;;5.60;4.10;;;22.00;93.70;;;;;;4993334;28;20059;-54
2022/08/06 03:10:29;;;;;;;5.63;4.47;;;22.10;93.60;;;;;;4993390;28;20038;-55
2022/08/06 03:12:57;;;;;;;4.88;4.13;;;22.10;93.60;;;;;;4993762;28;20038;-53
2022/08/06 03:15:25;;;;;;;4.72;4.15;;;22.10;93.60;;;;;;4992880;28;20508;-56
2022/08/06 03:17:56;;;;;;;5.05;4.30;;;22.20;93.60;;;;;;4993840;28;20014;-55
2022/08/06 03:20:21;;;;;;;;;;;22.20;93.70;;;;;;4994274;28;20027;-54
2022/08/06 03:22:51;;;;;;;4.00;3.30;;;22.30;93.60;;;;;;4992333;28;19956;-55
2022/08/06 03:25:18;;;;;;;3.85;3.45;;;22.40;93.90;;;;;;4989380;28;20117;-55
2022/08/06 03:27:45;;;;;;;3.88;3.35;;;22.50;93.90;;;;;;4993685;28;20045;-55
2022/08/06 03:30:13;;;;;;;4.07;3.60;;;22.50;93.80;;;;;;4993175;28;20041;-54
2022/08/06 03:32:39;;;;;;;3.38;3.08;;;22.60;93.80;;;;;;4992889;28;20509;-54
2022/08/06 03:35:06;;;;;;;4.25;3.72;;;22.70;93.80;;;;;;4993431;28;20034;-55
2022/08/06 03:37:33;;;;;;;3.75;3.35;;;22.80;93.90;;;;;;4993177;28;20018;-55
2022/08/06 03:40:01;;;;;;;4.60;3.92;;;22.90;93.80;;;;;;4983196;28;20031;-54
2022/08/06 03:42:27;;;;;;;4.80;4.00;;;23.00;93.80;;;;;;4983543;28;20402;-55
2022/08/06 03:44:53;;;;;;;4.15;3.72;;;23.10;93.90;;;;;;4995965;28;20041;-54
2022/08/06 03:47:24;;;;;;;5.13;4.50;;;23.20;93.80;;;;;;4987770;28;20489;-54
2022/08/06 03:50:01;;;;;;;4.43;3.78;;;23.40;93.70;;;;;;4993092;28;20039;-55
2022/08/06 03:52:31;;;;;;;4.70;4.10;;;23.50;93.30;;;;;;4990773;28;20030;-55
2022/08/06 03:55:01;;;;;;;4.93;4.22;;;23.60;93.00;;;;;;4991128;28;20027;-55
2022/08/06 03:57:31;;;;;;;;;;;23.70;92.80;;;;;;4992895;28;20080;-55
2022/08/06 04:00:00;;;;;;;4.43;4.03;;;23.80;92.10;;;;;;4992656;28;19906;-55
2022/08/06 04:02:38;;;;;;;4.47;3.70;;;24.00;94.10;;;;;;4992939;28;20482;-55
2022/08/06 04:05:05;;;;;;;4.18;3.75;;;24.30;94.10;;;;;;4992554;28;20434;-55
2022/08/06 04:07:32;;;;;;;4.28;3.67;;;24.70;94.40;;;;;;4992260;28;20033;-55
2022/08/06 04:10:00;;;;;;;5.03;4.53;;;25.10;93.90;;;;;;4992870;28;20109;-54
2022/08/06 04:12:28;;;;;;;5.25;4.63;;;25.60;92.90;;;;;;4991999;28;20037;-55
2022/08/06 04:14:54;;;;;;;5.32;4.63;;;26.30;91.60;;;;;;4992696;28;20049;-55
2022/08/06 04:17:22;;;;;;;5.55;4.20;;;27.10;90.20;;;;;;4993075;28;20022;-56
2022/08/06 04:19:50;;;;;;;5.15;4.20;;;27.80;87.70;;;;;;4992888;28;20146;-55
2022/08/06 04:22:16;;;;;;;4.75;4.25;;;28.60;85.00;;;;;;4987448;28;20072;-55
2022/08/06 04:24:42;;;;;;;4.43;3.78;;;29.40;82.80;;;;;;4992704;28;20022;-55
2022/08/06 04:27:09;;;;;;;4.72;3.95;;;30.00;80.20;;;;;;4992725;28;20088;-55
2022/08/06 04:29:37;;;;;;;4.43;3.97;;;30.60;77.90;;;;;;4983912;28;20029;-55
2022/08/06 04:32:05;;;;;;;3.75;3.38;;;30.70;75.70;;;;;;4992613;28;20023;-55
2022/08/06 04:34:33;;;;;;;4.50;3.63;;;30.60;74.50;;;;;;4992310;28;20023;-55
2022/08/06 04:37:00;;;;;;;3.65;3.35;;;30.30;74.40;;;;;;4992515;28;20025;-55
2022/08/06 04:39:26;;;;;;;4.38;3.90;;;30.10;75.50;;;;;;4992486;28;20049;-55
2022/08/06 04:41:53;;;;;;;4.45;3.58;;;30.10;75.60;;;;;;4985256;28;20064;-56
2022/08/06 04:44:19;;;;;;;4.55;3.90;;;30.20;74.90;;;;;;4990542;28;20057;-55
2022/08/06 04:46:49;;;;;;;4.22;3.70;;;30.10;74.30;;;;;;4991822;28;20363;-55
2022/08/06 04:49:15;;;;;;;;;;;30.00;75.00;;;;;;4992769;28;20105;-55
2022/08/06 04:51:45;;;;;;;6.13;4.50;;;30.20;73.60;;;;;;4988377;28;20001;-55
2022/08/06 04:54:11;;;;;;;;;;;30.70;74.90;;;;;;4993164;28;20018;-54
2022/08/06 04:56:37;;;;;;;4.15;3.72;;;31.20;73.20;;;;;;4985483;28;20278;-55
2022/08/06 04:59:04;;;;;;;5.47;4.35;;;31.80;73.40;;;;;;4988267;28;20022;-56
2022/08/06 05:01:29;;;;;;;5.13;4.20;;;32.30;71.10;;;;;;4988135;28;20037;-56
2022/08/06 05:03:55;;;;;;;4.20;3.80;;;32.50;69.50;;;;;;4991619;28;20378;-55
2022/08/06 05:06:47;;;;;;;4.90;4.10;;;32.70;69.40;;;;;;4991465;28;20105;-55
2022/08/06 05:09:18;;;;;;;4.38;3.90;;;32.90;68.80;;;;;;4992286;28;20371;-55
2022/08/06 05:11:56;;;;;;;4.40;3.90;;;33.30;68.40;;;;;;4992393;28;20030;-55
2022/08/06 05:14:31;;;;;;;4.65;4.15;;;33.50;67.40;;;;;;4993485;28;20113;-56
2022/08/06 05:16:59;;;;;;;4.82;4.32;;;33.50;66.50;;;;;;4989992;28;20039;-56
2022/08/06 05:19:33;;;;;;;5.45;4.72;;;33.40;65.60;;;;;;4989992;28;20533;-56
2022/08/06 05:22:00;;;;;;;5.20;4.70;;;33.10;65.00;;;;;;4996139;28;20031;-55
2022/08/06 05:24:27;;;;;;;5.60;4.90;;;32.80;64.70;;;;;;4992269;28;20110;-56
2022/08/06 05:26:53;;;;;;;5.88;5.28;;;32.40;64.60;;;;;;4989958;28;20508;-55
2022/08/06 05:29:20;;;;;;;6.75;5.00;;;31.90;64.60;;;;;;4995849;28;20019;-56
2022/08/06 05:31:46;;;;;;;6.18;4.78;;;31.50;65.70;;;;;;4995177;28;20035;-55
2022/08/06 05:34:12;;;;;;;4.97;4.45;;;31.20;65.20;;;;;;4992977;28;20019;-55
2022/08/06 05:36:39;;;;;;;5.78;4.97;;;30.90;65.40;;;;;;4995187;28;20068;-55
2022/08/06 05:39:05;;;;;;;5.13;4.28;;;30.70;65.60;;;;;;4995284;28;20018;-55
2022/08/06 05:41:30;;;;;;;5.28;4.57;;;30.50;65.80;;;;;;4987367;28;20027;-55
2022/08/06 05:43:58;;;;;;;5.20;4.50;;;30.40;66.00;;;;;;4997391;28;20168;-55
2022/08/06 05:46:27;;;;;;;6.55;5.53;;;30.10;66.00;;;;;;4998053;28;20033;-55
2022/08/06 05:48:59;;;;;;;5.20;4.45;;;29.90;66.30;;;;;;4985046;28;20041;-55
2022/08/06 05:51:29;;;;;;;6.72;5.22;;;29.60;66.60;;;;;;4989110;28;20034;-55
2022/08/06 05:54:03;;;;;;;5.53;4.65;;;29.40;67.00;;;;;;4993835;28;20022;-55
2022/08/06 05:56:36;;;;;;;6.13;5.53;;;29.20;67.30;;;;;;4993213;28;20038;-55
2022/08/06 05:59:06;;;;;;;6.47;5.18;;;28.90;67.50;;;;;;4991124;28;20050;-55
2022/08/06 06:01:33;;;;;;;4.88;4.28;;;28.70;67.80;;;;;;4998443;28;20022;-55
2022/08/06 06:03:59;;;;;;;6.78;4.80;;;28.60;68.10;;;;;;4991318;28;20490;-55
2022/08/06 06:06:26;;;;;;;4.68;4.22;;;28.40;68.40;;;;;;4994514;28;20031;-56
2022/08/06 06:08:52;;;;;;;5.07;4.53;;;28.30;68.80;;;;;;4993191;28;20035;-55
2022/08/06 06:11:19;;;;;;;5.75;4.55;;;28.20;69.10;;;;;;4993738;28;20026;-54
2022/08/06 06:13:45;;;;;;;5.10;4.55;;;28.10;69.20;;;;;;4992976;28;20042;-55
2022/08/06 06:16:54;;;;;;;4.32;3.90;;;28.00;69.40;;;;;;4991498;28;20026;-55
2022/08/06 06:19:31;;;;;;;4.50;4.03;;;27.90;69.60;;;;;;4987705;28;20026;-55
2022/08/06 06:22:20;;;;;;;4.32;3.78;;;27.80;69.90;;;;;;4992659;28;20045;-55
2022/08/06 06:24:59;;;;;;;4.80;4.28;;;27.70;70.30;;;;;;4994913;28;20378;-55
2022/08/06 06:27:31;;;;;;;7.20;4.90;;;27.70;70.60;;;;;;4994698;28;20018;-55
2022/08/06 06:30:05;;;;;;;5.00;4.50;;;27.60;70.70;;;;;;4994560;28;20035;-55
2022/08/06 06:33:01;;;;;;;5.03;4.43;;;27.50;70.80;;;;;;4982590;28;20022;-55
2022/08/06 06:35:52;;;;;;;4.78;4.10;;;27.50;70.70;;;;;;4992911;28;20038;-55
2022/08/06 06:38:36;;;;;;;4.75;3.90;;;27.40;71.20;;;;;;4994333;28;20068;-55
2022/08/06 06:41:28;;;;;;;4.20;3.80;;;27.40;71.20;;;;;;4988792;28;20106;-55
2022/08/06 06:44:18;;;;;;;4.68;4.10;;;27.30;71.50;;;;;;4983371;28;20101;-56
2022/08/06 06:46:56;;;;;;;4.28;3.83;;;27.20;71.60;;;;;;4994558;28;20030;-54
2022/08/06 06:49:24;;;;;;;5.05;4.30;;;27.10;71.80;;;;;;4993556;28;20081;-55
2022/08/06 06:51:57;;;;;;;4.90;4.28;;;27.10;72.00;;;;;;4994301;28;20038;-55
2022/08/06 06:54:27;;;;;;;4.78;4.25;;;27.10;72.00;;;;;;4993386;28;20026;-55
2022/08/06 06:56:55;;;;;;;5.85;5.25;;;27.00;72.10;;;;;;4993836;28;20367;-55
2022/08/06 06:59:37;;;;;;;5.45;4.65;;;27.10;72.40;;;;;;4993226;28;20066;-55
2022/08/06 07:02:05;;;;;;;5.93;5.28;;;27.10;72.30;;;;;;4992717;28;20101;-54
2022/08/06 07:04:31;;;;;;;6.25;5.05;;;27.10;72.10;;;;;;4992135;28;20034;-55
2022/08/06 07:06:59;;;;;;;5.53;4.80;;;27.10;72.10;;;;;;4990412;28;20391;-55
2022/08/06 07:09:29;;;;;;;4.47;4.07;;;27.10;72.20;;;;;;4993887;28;20026;-55
2022/08/06 07:11:57;;;;;;;4.47;4.05;;;27.10;72.50;;;;;;4994039;28;20085;-55
2022/08/06 07:14:24;;;;;;;4.93;4.25;;;27.10;72.50;;;;;;4991307;28;20291;-54
2022/08/06 07:16:56;;;;;;;4.80;4.20;;;27.10;72.70;;;;;;4991439;28;20034;-54
2022/08/06 07:19:24;;;;;;;4.75;4.20;;;27.10;72.80;;;;;;4991554;28;20021;-55
2022/08/06 07:21:50;;;;;;;5.53;4.53;;;27.10;72.80;;;;;;4991167;28;20434;-55
2022/08/06 07:24:17;;;;;;;5.70;5.00;;;27.10;72.80;;;;;;4991805;28;20026;-54
2022/08/06 07:26:44;;;;;;;5.82;5.22;;;27.10;72.80;;;;;;4991927;28;20031;-54
2022/08/06 07:29:12;;;;;;;6.28;5.00;;;27.10;72.80;;;;;;4992691;28;20030;-54
2022/08/06 07:31:40;;;;;;;5.63;4.47;;;27.10;72.70;;;;;;4992697;28;20034;-55
2022/08/06 07:34:06;;;;;;;5.22;4.72;;;27.10;72.60;;;;;;4993726;28;20475;-55
2022/08/06 07:36:36;;;;;;;6.53;5.35;;;27.10;72.60;;;;;;4992720;28;20033;-55
2022/08/06 07:39:15;;;;;;;5.63;5.03;;;27.00;72.60;;;;;;4992878;28;20097;-55
2022/08/06 07:41:42;;;;;;;5.43;4.82;;;27.00;72.70;;;;;;4993322;28;20114;-55
2022/08/06 07:44:12;;;;;;;6.35;5.55;;;27.00;72.70;;;;;;4992804;28;20130;-55
2022/08/06 07:46:41;;;;;;;6.55;5.65;;;27.00;72.80;;;;;;4988319;28;20023;-55
2022/08/06 07:49:09;;;;;;;6.13;5.45;;;26.90;72.50;;;;;;4992963;28;20039;-55
2022/08/06 07:51:38;;;;;;;7.10;6.13;;;26.90;72.40;;;;;;4993230;28;20093;-55
2022/08/06 07:54:06;;;;;;;5.72;5.22;;;26.80;72.60;;;;;;4991082;28;20026;-55
2022/08/06 07:56:35;;;;;;;5.53;4.50;;;26.70;72.80;;;;;;4987931;28;20478;-54
2022/08/06 07:59:03;;;;;;;5.13;4.63;;;26.70;73.00;;;;;;4992090;28;20042;-54
2022/08/06 08:01:31;;;;;;;6.13;5.13;;;26.70;73.40;;;;;;4991455;28;20077;-55
2022/08/06 08:06:43;;;;;;;4.82;4.43;;;26.70;73.60;;;;;;4982627;28;20120;-54
2022/08/06 08:09:21;;;;;;;4.93;4.32;;;26.70;73.90;;;;;;4992928;28;20052;-55
2022/08/06 08:11:49;;;;;;;5.18;4.68;;;26.70;74.00;;;;;;4991435;28;20085;-54
2022/08/06 08:14:18;;;;;;;5.18;4.68;;;26.70;74.20;;;;;;4986906;28;20171;-55
2022/08/06 08:16:44;;;;;;;5.03;4.18;;;26.70;74.10;;;;;;4981097;28;20409;-55
2022/08/06 08:19:23;;;;;;;5.38;4.82;;;26.70;74.30;;;;;;4988083;28;20026;-55
2022/08/06 08:21:53;;;;;;;5.07;4.57;;;26.70;74.40;;;;;;4976611;28;20039;-55
2022/08/06 08:24:19;;;;;;;4.95;4.45;;;26.70;74.40;;;;;;4981873;28;20599;-55
2022/08/06 08:26:44;;;;;;;4.90;4.40;;;26.70;74.10;;;;;;4990600;28;20054;-56
2022/08/06 08:29:11;;;;;;;5.15;4.65;;;26.70;74.20;;;;;;4990850;28;20041;-56
2022/08/06 08:31:37;;;;;;;5.20;4.70;;;26.70;74.10;;;;;;4985187;28;20034;-54
2022/08/06 08:34:03;;;;;;;4.85;4.32;;;26.70;74.10;;;;;;4989801;28;20528;-55
2022/08/06 08:36:28;;;;;;;5.22;4.45;;;26.70;74.10;;;;;;4986451;28;20026;-55
2022/08/06 08:38:57;;;;;;;4.70;4.18;;;26.70;74.10;;;;;;4991481;28;20027;-55
2022/08/06 08:41:33;;;;;;;4.60;3.97;;;26.70;74.30;;;;;;4976041;28;20118;-54
2022/08/06 08:44:05;;;;;;;5.22;4.70;;;26.70;74.20;;;;;;4989811;28;20053;-55
2022/08/06 08:46:49;;;;;;;5.38;4.65;;;26.70;74.20;;;;;;4988962;28;20076;-55
2022/08/06 08:49:44;;;;;;;5.30;4.68;;;26.70;74.20;;;;;;4995170;28;20058;-55
2022/08/06 08:52:38;;;;;;;5.82;5.00;;;26.70;74.20;;;;;;4995223;28;20042;-55
2022/08/06 08:55:08;;;;;;;4.82;4.32;;;26.60;74.00;;;;;;4979471;28;20041;-55
2022/08/06 08:57:35;;;;;;;6.93;5.03;;;26.60;74.40;;;;;;4995671;28;20014;-54
2022/08/06 09:00:02;;;;;;;5.32;4.65;;;26.60;74.60;;;;;;4988704;28;20046;-55
2022/08/06 09:02:29;;;;;;;7.20;6.10;;;26.60;74.60;;;;;;4994429;28;20030;-54
2022/08/06 09:04:55;;;;;;;5.28;4.78;;;26.60;75.20;;;;;;4994593;28;20045;-55
2022/08/06 09:07:20;;;;;;;5.38;4.70;;;26.60;74.70;;;;;;4995853;28;20088;-53
2022/08/06 09:09:46;;;;;;;5.05;4.53;;;26.50;74.70;;;;;;4995982;28;20498;-54
2022/08/06 09:12:12;;;;;;;5.28;4.30;;;26.50;74.70;;;;;;4995208;28;20042;-55
2022/08/06 09:14:38;;;;;;;6.28;5.38;;;26.50;74.80;;;;;;4991027;28;20491;-55
2022/08/06 09:17:05;;;;;;;5.53;4.90;;;26.50;74.90;;;;;;4993876;28;20482;-54
2022/08/06 09:19:32;;;;;;;5.60;5.00;;;26.50;75.10;;;;;;4994024;28;20022;-55
2022/08/06 09:21:59;;;;;;;5.50;4.60;;;26.50;75.10;;;;;;4993762;28;20354;-56
2022/08/06 09:24:25;;;;;;;6.38;5.00;;;26.50;75.20;;;;;;4993593;28;20046;-55
2022/08/06 09:27:11;;;;;;;6.10;5.47;;;26.50;75.90;;;;;;4993899;28;20022;-55
2022/08/06 09:29:50;;;;;;;6.35;4.93;;;26.50;75.00;;;;;;4993717;28;20566;-54
2022/08/06 09:32:35;;;;;;;4.90;4.40;;;26.50;75.10;;;;;;4995180;28;20057;-55
2022/08/06 09:35:01;;;;;;;5.25;4.60;;;26.50;75.00;;;;;;4995633;28;20446;-55
2022/08/06 09:37:28;;;;;;;5.32;4.82;;;26.50;75.00;;;;;;4996092;28;20101;-55
2022/08/06 09:39:54;;;;;;;5.05;4.20;;;26.50;75.40;;;;;;4994802;28;20030;-54
2022/08/06 09:42:40;;;;;;;4.57;4.07;;;26.50;75.10;;;;;;4995843;28;20034;-55
2022/08/06 09:45:13;;;;;;;4.63;4.00;;;26.50;74.90;;;;;;4999185;28;20026;-55
2022/08/06 09:47:39;;;;;;;4.40;4.00;;;26.50;75.20;;;;;;4995444;28;20463;-55
2022/08/06 09:50:06;;;;;;;4.35;3.95;;;26.50;75.30;;;;;;4996046;28;20026;-54
2022/08/06 09:52:32;;;;;;;4.95;4.45;;;26.50;75.20;;;;;;4995753;28;20116;-55
2022/08/06 09:54:57;;;;;;;4.72;4.22;;;26.50;75.30;;;;;;4994726;28;20114;-55
2022/08/06 09:57:24;;;;;;;4.18;3.67;;;26.50;75.30;;;;;;4995032;28;20054;-55
2022/08/06 09:59:50;;;;;;;4.38;3.97;;;26.50;75.60;;;;;;4993264;28;20026;-54
2022/08/06 10:02:18;;;;;;;5.15;4.65;;;26.50;75.70;;;;;;4994736;28;20537;-54
2022/08/06 10:04:45;;;;;;;5.40;4.25;;;26.60;75.50;;;;;;4994994;28;20031;-54
2022/08/06 10:07:11;;;;;;;6.30;5.30;;;26.50;75.60;;;;;;4995469;28;20394;-55
2022/08/06 10:09:51;;;;;;;5.38;4.88;;;26.50;75.60;;;;;;4994998;28;20019;-55
2022/08/06 10:12:22;;;;;;;6.13;5.50;;;26.50;75.20;;;;;;4991296;28;20102;-54
2022/08/06 10:14:48;;;;;;;6.22;5.63;;;26.50;75.40;;;;;;4994304;28;20041;-55
2022/08/06 10:17:15;;;;;;;6.65;5.45;;;26.50;75.40;;;;;;4994103;28;20034;-55
2022/08/06 10:19:43;;;;;;;5.75;4.68;;;26.50;75.40;;;;;;4987152;28;20387;-54
2022/08/06 10:22:27;;;;;;;5.93;5.05;;;26.40;75.20;;;;;;4994425;28;20027;-55
2022/08/06 10:24:54;;;;;;;6.53;5.68;;;26.40;75.10;;;;;;4994996;28;20042;-55
2022/08/06 10:27:32;;;;;;;5.10;4.60;;;26.40;75.20;;;;;;4990078;28;20081;-54
2022/08/06 10:30:07;;;;;;;4.85;4.20;;;26.40;75.30;;;;;;4995142;28;20439;-55
2022/08/06 10:32:58;;;;;;;5.07;4.57;;;26.40;75.30;;;;;;4983422;28;20014;-55
2022/08/06 10:35:24;;;;;;;5.78;5.03;;;26.40;74.90;;;;;;4986952;28;20053;-54
2022/08/06 10:37:58;;;;;;;7.05;4.82;;;26.40;75.00;;;;;;4993583;28;20065;-54
2022/08/06 10:40:25;;;;;;;5.95;4.93;;;26.50;74.90;;;;;;4990021;28;20022;-55
2022/08/06 10:42:52;;;;;;;6.57;5.40;;;26.50;75.00;;;;;;4991595;28;20537;-54
2022/08/06 10:45:18;;;;;;;6.50;5.03;;;26.50;74.60;;;;;;4998345;28;20034;-55
2022/08/06 10:47:46;;;;;;;5.95;5.07;;;26.50;74.60;;;;;;4994515;28;20022;-54
2022/08/06 10:50:13;;;;;;;5.95;5.35;;;26.50;74.60;;;;;;4993194;28;20026;-54
2022/08/06 10:52:40;;;;;;;5.28;4.45;;;26.50;74.40;;;;;;4978492;28;20478;-55
2022/08/06 10:55:07;;;;;;;4.35;3.95;;;26.60;74.40;;;;;;4992518;28;20423;-55
2022/08/06 10:57:33;;;;;;;4.70;4.20;;;26.60;74.20;;;;;;4993743;28;20026;-54
2022/08/06 11:00:00;;;;;;;4.55;3.95;;;26.60;74.20;;;;;;4992387;28;20382;-55
2022/08/06 11:03:00;;;;;;;4.22;3.80;;;26.60;74.00;;;;;;4993713;28;20101;-55
2022/08/06 11:05:33;;;;;;;4.15;3.75;;;26.70;74.10;;;;;;4993766;28;20035;-55
2022/08/06 11:08:35;;;;;;;5.10;4.10;;;26.60;74.20;;;;;;4993866;28;20032;-54
2022/08/06 11:11:34;;;;;;;3.95;3.55;;;26.70;74.10;;;;;;4987424;28;20046;-55
2022/08/06 11:14:09;;;;;;;3.20;2.90;;;26.70;73.90;;;;;;4992187;28;20401;-55
2022/08/06 11:16:35;;;;;;;3.80;3.35;;;26.60;74.10;;;;;;4993052;28;20137;-55
2022/08/06 11:19:10;;;;;;;3.95;3.47;;;26.70;74.20;;;;;;4993818;28;20085;-56
2022/08/06 11:21:39;;;;;;;4.40;3.72;;;26.70;74.00;;;;;;4994133;28;20105;-55
2022/08/06 11:24:05;;;;;;;4.20;3.77;;;26.70;74.00;;;;;;4993771;28;20026;-55
2022/08/06 11:26:37;;;;;;;4.30;3.75;;;26.70;74.30;;;;;;4989807;28;20022;-55
2022/08/06 11:29:04;;;;;;;4.03;3.50;;;26.70;74.60;;;;;;4992620;28;20023;-54
2022/08/06 11:31:37;;;;;;;4.28;3.80;;;26.70;74.70;;;;;;4992455;28;20486;-54
2022/08/06 11:34:10;;;;;;;4.05;3.70;;;26.70;74.70;;;;;;4981210;28;20110;-55
2022/08/06 11:36:46;;;;;;;3.78;3.33;;;26.70;74.60;;;;;;4989547;28;20473;-55
2022/08/06 11:39:12;;;;;;;3.90;3.30;;;26.70;75.20;;;;;;4993072;28;20465;-55
2022/08/06 11:42:03;;;;;;;4.00;3.50;;;26.60;74.50;;;;;;4980444;28;20014;-54
2022/08/06 11:44:30;;;;;;;;;;;26.70;75.30;;;;;;4998321;28;20018;-54
2022/08/06 11:47:28;;;;;;;3.40;3.10;;;26.60;74.50;;;;;;4987313;28;19925;-55
2022/08/06 11:49:54;;;;;;;3.92;3.53;;;26.70;74.80;;;;;;4945696;28;20042;-54
2022/08/06 11:52:40;;;;;;;3.85;3.45;;;26.70;74.80;;;;;;4992027;28;20041;-54
2022/08/06 11:55:15;;;;;;;4.10;3.70;;;26.70;74.80;;;;;;4992321;28;20026;-55
2022/08/06 11:57:41;;;;;;;3.58;3.20;;;26.70;75.00;;;;;;4992141;28;20435;-55
2022/08/06 12:00:11;;;;;;;3.50;3.15;;;26.60;75.00;;;;;;4993025;28;20063;-55
2022/08/06 12:02:40;;;;;;;3.92;3.53;;;26.70;75.20;;;;;;4992243;28;20031;-55
2022/08/06 12:05:07;;;;;;;3.95;3.55;;;26.70;75.30;;;;;;4993377;28;20027;-55
2022/08/06 12:07:36;;;;;;;4.75;3.80;;;26.70;75.40;;;;;;4992319;28;20385;-55
2022/08/06 12:10:13;;;;;;;3.55;3.22;;;26.70;75.20;;;;;;4992611;28;20031;-54
2022/08/06 12:12:42;;;;;;;3.83;3.20;;;26.70;75.00;;;;;;4993456;28;20322;-55
2022/08/06 12:15:22;;;;;;;4.10;3.53;;;26.70;75.00;;;;;;4990701;28;20093;-56
2022/08/06 12:17:54;;;;;;;3.40;3.10;;;26.80;74.70;;;;;;4984023;28;20041;-53
2022/08/06 12:20:38;;;;;;;3.47;3.15;;;26.80;74.80;;;;;;4987026;28;20054;-54
2022/08/06 12:23:09;;;;;;;3.80;3.20;;;26.80;74.70;;;;;;4992070;28;20023;-54
2022/08/06 12:25:38;;;;;;;4.20;3.63;;;26.80;74.70;;;;;;4981087;28;20090;-55
2022/08/06 12:28:05;;;;;;;4.00;3.33;;;26.80;74.80;;;;;;4991922;28;20478;-55
2022/08/06 12:30:45;;;;;;;3.40;3.10;;;26.80;74.70;;;;;;4992451;28;20023;-55
2022/08/06 12:33:12;;;;;;;3.83;3.40;;;26.90;74.80;;;;;;4991732;28;20049;-54
2022/08/06 12:36:00;;;;;;;3.67;3.33;;;26.90;75.00;;;;;;4991369;28;20034;-54
2022/08/06 12:38:31;;;;;;;3.60;3.30;;;26.90;74.90;;;;;;4988307;28;20049;-55
2022/08/06 12:40:59;;;;;;;3.50;3.17;;;26.90;75.00;;;;;;4975771;28;20117;-55
2022/08/06 12:43:27;;;;;;;3.95;3.45;;;27.00;75.10;;;;;;4992082;28;20034;-55
2022/08/06 12:46:04;;;;;;;3.50;3.20;;;26.90;75.10;;;;;;4998725;28;20065;-54
2022/08/06 12:48:32;;;;;;;3.90;3.47;;;27.00;74.70;;;;;;4979550;28;20097;-55
2022/08/06 12:51:03;;;;;;;3.58;3.25;;;27.00;74.90;;;;;;4988056;28;20058;-55
2022/08/06 12:53:29;;;;;;;3.60;3.30;;;27.00;75.00;;;;;;4990875;28;20081;-55
2022/08/06 12:55:56;;;;;;;3.67;3.38;;;27.00;75.00;;;;;;4989680;28;20038;-55
2022/08/06 12:58:34;;;;;;;3.20;2.88;;;27.00;75.00;;;;;;4991866;28;20447;-54
2022/08/06 13:01:02;;;;;;;3.40;3.08;;;27.00;75.00;;;;;;4992207;28;20045;-55
2022/08/06 13:03:32;;;;;;;3.42;3.10;;;27.00;75.00;;;;;;4992246;28;20102;-55
2022/08/06 13:06:01;;;;;;;3.08;2.80;;;27.00;75.00;;;;;;4992327;28;20034;-55
2022/08/06 13:08:27;;;;;;;3.10;2.80;;;27.10;75.20;;;;;;4990555;28;20109;-55
2022/08/06 13:10:56;;;;;;;3.47;2.92;;;27.10;75.10;;;;;;4988519;28;20030;-55